F/V Deux Freres I — FLST — position and weather

sailwx.info

Track history (hours):
 
Tides and Currents Weather Stations Pressure Air Temp Water Temp Dewpoint Dewpoint Depression Visibility Wind Speed Wind Dir Waves Ship Positions

F/V Deux Freres I

Last reported at 2014-Aug-21 21:32 UTC. Time now 2014-Aug-21 22:04 UTC.
Position N 43°15' E 004°16'.

Length 18 m; draft 3.9 m.

Type: Fishing. MMSI: 228338900.

Date/timePositionNaut miles runAvg speedWind from/ knotsBaromVisibWave heightAir tempDewpointWater temp
2014-Aug-21 21:32N 43°15' E 004°16'4 3.7
2014-Aug-21 20:33N 43°13' E 004°20'3 3.4
2014-Aug-21 19:32N 43°12' E 004°24'0 0.4
2014-Aug-21 18:33N 43°12' E 004°24'3 3.4
2014-Aug-21 17:33N 43°14' E 004°21'10 4.7
2014-Aug-21 15:26N 43°20' E 004°10'19 9.7
2014-Aug-21 13:29N 43°25' E 003°45'0 0.0
2014-Aug-21 12:33N 43°25' E 003°45'0 0.0
2014-Aug-21 11:33N 43°25' E 003°45'0 0.0
2014-Aug-21 10:33N 43°25' E 003°45'0 0.0
2014-Aug-21 07:08N 43°25' E 003°45'0 0.0
2014-Aug-21 06:32N 43°25' E 003°45'0 0.0
2014-Aug-21 05:32N 43°25' E 003°45'0 0.0
2014-Aug-21 04:30N 43°25' E 003°45'0 0.0
2014-Aug-21 03:30N 43°25' E 003°45'0 0.0
2014-Aug-21 02:32N 43°25' E 003°45'0 0.0
2014-Aug-21 01:33N 43°25' E 003°45'0 0.0
2014-Aug-21 00:33N 43°25' E 003°45'0 0.0
2014-Aug-20 23:33N 43°25' E 003°45'0 0.0
2014-Aug-20 22:33N 43°25' E 003°45'0 0.0
2014-Aug-20 21:33N 43°25' E 003°45'0 0.0
2014-Aug-20 20:33N 43°25' E 003°45'0 0.0
2014-Aug-20 19:33N 43°25' E 003°45'0 0.0
2014-Aug-20 18:33N 43°25' E 003°45'0 0.0
2014-Aug-20 17:32N 43°25' E 003°45'0 0.0
2014-Aug-20 16:33N 43°25' E 003°45'0 0.0
2014-Aug-20 15:31N 43°25' E 003°45'0 0.0
2014-Aug-20 14:30N 43°25' E 003°45'0 0.0
2014-Aug-20 13:30N 43°25' E 003°45'0 0.0
2014-Aug-20 12:32N 43°25' E 003°45'0 0.0
2014-Aug-20 11:30N 43°25' E 003°45'0 0.0
2014-Aug-20 10:30N 43°25' E 003°45'0 0.0
2014-Aug-20 09:33N 43°25' E 003°45'0 0.0
2014-Aug-20 08:32N 43°25' E 003°45'3 2.5
2014-Aug-20 07:28N 43°24' E 003°42'3 2.8
2014-Aug-20 06:32N 43°25' E 003°45'0 0.0
2014-Aug-20 05:32N 43°25' E 003°45'0 0.0
2014-Aug-20 04:33N 43°25' E 003°45'0 0.0
2014-Aug-20 03:30N 43°25' E 003°45'0 0.0
2014-Aug-20 02:30N 43°25' E 003°45'0 0.0
2014-Aug-20 01:30N 43°25' E 003°45'0 0.0
2014-Aug-20 00:32N 43°25' E 003°45'0 0.0
2014-Aug-19 23:33N 43°25' E 003°45'0 0.0
2014-Aug-19 22:33N 43°25' E 003°45'0 0.0
2014-Aug-19 21:33N 43°25' E 003°45'0 0.0
2014-Aug-19 20:33N 43°25' E 003°45'0 0.0
2014-Aug-19 19:32N 43°25' E 003°45'0 0.0
2014-Aug-19 18:33N 43°25' E 003°45'0 0.0
2014-Aug-19 17:32N 43°25' E 003°45'0 0.0
2014-Aug-19 16:33N 43°25' E 003°45'0 0.0
2014-Aug-19 15:30N 43°25' E 003°45'0 0.0
2014-Aug-19 14:29N 43°25' E 003°45'0 0.0
2014-Aug-19 13:29N 43°25' E 003°45'0 0.0
2014-Aug-19 12:30N 43°25' E 003°45'0 0.0
2014-Aug-19 11:30N 43°25' E 003°45'0 0.0
2014-Aug-19 10:28N 43°25' E 003°45'0 0.0
2014-Aug-19 09:32N 43°25' E 003°45'0 0.0
2014-Aug-19 08:32N 43°25' E 003°45'0 0.0
2014-Aug-19 07:31N 43°25' E 003°45'0 0.0
2014-Aug-19 06:22N 43°25' E 003°45'0 0.0
2014-Aug-19 05:24N 43°25' E 003°45'0 0.0
2014-Aug-19 04:33N 43°25' E 003°45'0 0.0
2014-Aug-19 03:31N 43°25' E 003°45'0 0.0
2014-Aug-19 02:30N 43°25' E 003°45'3 3.2
2014-Aug-19 01:31N 43°24' E 003°49'1212.1
2014-Aug-19 00:30N 43°21' E 004°05'1010.2
2014-Aug-18 23:32N 43°18' E 004°18'2 2.3
2014-Aug-18 22:30N 43°16' E 004°20'2 2.3
2014-Aug-18 21:29N 43°14' E 004°21'4 3.6
2014-Aug-18 20:27N 43°11' E 004°24'3 2.6
2014-Aug-18 19:28N 43°10' E 004°27'35 4.3
2014-Aug-18 11:32N 43°25' E 003°45'0 0.0
2014-Aug-18 10:33N 43°25' E 003°45'0 0.0
2014-Aug-18 09:07N 43°25' E 003°45'0 0.0
2014-Aug-18 08:33N 43°25' E 003°45'0 0.0
2014-Aug-18 06:20N 43°25' E 003°45'0 0.0
2014-Aug-18 05:31N 43°25' E 003°45'0 0.0
2014-Aug-18 04:33N 43°25' E 003°45'0 0.0
2014-Aug-18 03:29N 43°25' E 003°45'0 0.0
2014-Aug-18 02:29N 43°25' E 003°45'1 1.4
2014-Aug-18 01:33N 43°24' E 003°46'1211.8
2014-Aug-18 00:33N 43°20' E 004°01'20 3.4
2014-Aug-17 18:33N 43°11' E 004°26'6 4.8
2014-Aug-17 17:18N 43°15' E 004°20'4 4.9
2014-Aug-17 16:30N 43°17' E 004°16'7 7.3
2014-Aug-17 15:30N 43°21' E 004°07'1311.6
2014-Aug-17 14:24N 43°24' E 003°50'4 4.8
2014-Aug-17 13:33N 43°25' E 003°45'0 0.0
2014-Aug-17 12:33N 43°25' E 003°45'0 0.0
2014-Aug-17 11:33N 43°25' E 003°45'0 0.0
2014-Aug-17 10:34N 43°25' E 003°45'0 0.0
2014-Aug-17 09:34N 43°25' E 003°45'0 0.0
2014-Aug-17 08:34N 43°25' E 003°45'0 0.0
2014-Aug-17 07:34N 43°25' E 003°45'0 0.0
2014-Aug-17 06:33N 43°25' E 003°45'0 0.0
2014-Aug-17 05:33N 43°25' E 003°45'0 0.0
2014-Aug-17 04:33N 43°25' E 003°45'0 0.0
2014-Aug-17 03:33N 43°25' E 003°45'0 0.0
2014-Aug-17 02:34N 43°25' E 003°45'0 0.0
2014-Aug-17 01:34N 43°25' E 003°45'0 0.0
2014-Aug-17 00:33N 43°25' E 003°45'0 0.0
2014-Aug-16 23:34N 43°25' E 003°45'0 0.0
2014-Aug-16 22:33N 43°25' E 003°45'0 0.0
2014-Aug-16 21:33N 43°25' E 003°45'0 0.0
2014-Aug-16 20:34N 43°25' E 003°45'0 0.0
2014-Aug-16 19:33N 43°25' E 003°45'0 0.0
2014-Aug-16 18:33N 43°25' E 003°45'0 0.0
2014-Aug-16 17:34N 43°25' E 003°45'0 0.0
2014-Aug-16 16:34N 43°25' E 003°45'0 0.0
2014-Aug-16 15:28N 43°25' E 003°45'0 0.0
2014-Aug-16 14:34N 43°25' E 003°45'0 0.0
2014-Aug-16 13:28N 43°25' E 003°45'0 0.0
2014-Aug-16 12:28N 43°25' E 003°45'0 0.0
2014-Aug-16 11:34N 43°25' E 003°45'0 0.0
2014-Aug-16 10:34N 43°25' E 003°45'0 0.0
2014-Aug-16 09:34N 43°25' E 003°45'0 0.0
2014-Aug-16 07:34N 43°25' E 003°45'0 0.0
2014-Aug-16 06:04N 43°25' E 003°45'0 0.0
2014-Aug-16 05:32N 43°25' E 003°45'0 0.0
2014-Aug-16 04:25N 43°25' E 003°45'0 0.0
2014-Aug-16 03:33N 43°25' E 003°45'0 0.0
2014-Aug-16 02:33N 43°25' E 003°45'0 0.0
2014-Aug-16 01:34N 43°25' E 003°45'0 0.0
2014-Aug-16 00:33N 43°25' E 003°45'0 0.0
2014-Aug-15 23:33N 43°25' E 003°45'0 0.0
2014-Aug-15 22:34N 43°25' E 003°45'0 0.0
2014-Aug-15 21:34N 43°25' E 003°45'0 0.0
2014-Aug-15 20:33N 43°25' E 003°45'0 0.0
2014-Aug-15 19:33N 43°25' E 003°45'0 0.0
2014-Aug-15 18:34N 43°25' E 003°45'0 0.0
2014-Aug-15 17:34N 43°25' E 003°45'0 0.0
2014-Aug-15 16:33N 43°25' E 003°45'0 0.0
2014-Aug-15 15:33N 43°25' E 003°45'0 0.0
2014-Aug-15 14:33N 43°25' E 003°45'0 0.0
2014-Aug-15 13:33N 43°25' E 003°45'0 0.0
2014-Aug-15 12:33N 43°25' E 003°45'0 0.0
2014-Aug-15 11:33N 43°25' E 003°45'0 0.0
2014-Aug-15 10:34N 43°25' E 003°45'0 0.0
2014-Aug-15 09:33N 43°25' E 003°45'0 0.0
2014-Aug-15 08:34N 43°25' E 003°45'0 0.0
2014-Aug-15 07:34N 43°25' E 003°45'0 0.0
2014-Aug-15 06:34N 43°25' E 003°45'0 0.0
2014-Aug-15 05:33N 43°25' E 003°45'0 0.0
2014-Aug-15 04:33N 43°25' E 003°45'0 0.0
2014-Aug-15 03:33N 43°25' E 003°45'0 0.0
2014-Aug-15 02:33N 43°25' E 003°45'0 0.0
2014-Aug-15 01:34N 43°25' E 003°45'0 0.0
2014-Aug-15 00:33N 43°25' E 003°45'0 0.0
2014-Aug-14 23:33N 43°25' E 003°45'0 0.0
2014-Aug-14 22:33N 43°25' E 003°45'0 0.0
2014-Aug-14 21:33N 43°25' E 003°45'0 0.0
2014-Aug-14 20:33N 43°25' E 003°45'0 0.0
2014-Aug-14 19:33N 43°25' E 003°45'0 0.0
2014-Aug-14 18:33N 43°25' E 003°45'0 0.0
2014-Aug-14 17:34N 43°25' E 003°45'0 0.0
2014-Aug-14 16:33N 43°25' E 003°45'0 0.0
2014-Aug-14 15:33N 43°25' E 003°45'0 0.0
2014-Aug-14 14:33N 43°25' E 003°45'0 0.0
2014-Aug-14 13:33N 43°25' E 003°45'0 0.0
2014-Aug-14 12:33N 43°25' E 003°45'0 0.0
2014-Aug-14 11:33N 43°25' E 003°45'0 0.0
2014-Aug-14 10:33N 43°25' E 003°45'0 0.0
2014-Aug-14 09:33N 43°25' E 003°45'0 0.0
2014-Aug-14 08:33N 43°25' E 003°45'0 0.0
2014-Aug-14 07:33N 43°25' E 003°45'0 0.0
2014-Aug-14 06:33N 43°25' E 003°45'0 0.0
2014-Aug-14 05:33N 43°25' E 003°45'0 0.0
2014-Aug-14 04:33N 43°25' E 003°45'0 0.0
2014-Aug-14 03:33N 43°25' E 003°45'0 0.0
2014-Aug-14 02:33N 43°25' E 003°45'0 0.0
2014-Aug-14 01:33N 43°25' E 003°45'0 0.0
2014-Aug-14 00:33N 43°25' E 003°45'0 0.0
2014-Aug-13 23:30N 43°25' E 003°45'0 0.0
2014-Aug-13 22:33N 43°25' E 003°45'0 0.0
2014-Aug-13 21:33N 43°25' E 003°45'0 0.0
2014-Aug-13 20:30N 43°25' E 003°45'0 0.0
2014-Aug-13 19:33N 43°25' E 003°45'0 0.0
2014-Aug-13 18:33N 43°25' E 003°45'0 0.0
2014-Aug-13 17:28N 43°25' E 003°45'0 0.0
2014-Aug-13 16:29N 43°25' E 003°45'0 0.0
2014-Aug-13 15:29N 43°25' E 003°45'0 0.0
2014-Aug-13 14:33N 43°25' E 003°45'0 0.0
2014-Aug-13 13:30N 43°25' E 003°45'0 0.0
2014-Aug-13 12:29N 43°25' E 003°45'0 0.0
2014-Aug-13 11:29N 43°25' E 003°45'0 0.0
2014-Aug-13 10:29N 43°25' E 003°45'0 0.0
2014-Aug-13 09:30N 43°25' E 003°45'0 0.0
2014-Aug-13 08:33N 43°25' E 003°45'0 0.0
2014-Aug-13 05:30N 43°25' E 003°45'0 0.0
2014-Aug-13 04:30N 43°25' E 003°45'0 0.0
2014-Aug-13 03:30N 43°25' E 003°45'0 0.0
2014-Aug-13 02:31N 43°25' E 003°45'0 0.0
2014-Aug-13 01:32N 43°25' E 003°45'7 6.5
2014-Aug-13 00:30N 43°24' E 003°54'9 9.6
2014-Aug-12 23:31N 43°22' E 004°07'2 2.2
2014-Aug-12 22:31N 43°21' E 004°10'3 3.0
2014-Aug-12 21:30N 43°20' E 004°13'4 3.5
2014-Aug-12 20:29N 43°17' E 004°17'3 3.2
2014-Aug-12 19:27N 43°16' E 004°20'1 0.6
2014-Aug-12 18:33N 43°16' E 004°20'12 3.6
2014-Aug-12 15:15N 43°23' E 004°07'8 9.8
2014-Aug-12 14:28N 43°24' E 003°56'8 9.1
2014-Aug-12 13:32N 43°25' E 003°45'0 0.0
2014-Aug-12 12:29N 43°25' E 003°45'0 0.0
2014-Aug-12 10:03N 43°25' E 003°45'0 0.0
2014-Aug-12 09:31N 43°25' E 003°45'0 0.0
2014-Aug-12 07:29N 43°25' E 003°45'0 0.0
2014-Aug-12 05:28N 43°25' E 003°45'0 0.0
2014-Aug-12 04:32N 43°25' E 003°45'0 0.0
2014-Aug-12 03:29N 43°25' E 003°45'0 0.0
2014-Aug-12 02:33N 43°25' E 003°45'0 0.0
2014-Aug-12 01:33N 43°25' E 003°45'0 0.0
2014-Aug-12 00:29N 43°25' E 003°45'0 0.0
2014-Aug-11 23:23N 43°25' E 003°45'0 0.0
2014-Aug-11 21:33N 43°25' E 003°45'  
Track history (hours):
 
Tides and Currents Weather Stations Pressure Air Temp Water Temp Dewpoint Dewpoint Depression Visibility Wind Speed Wind Dir Waves Ship Positions

F/V Deux Freres I

Last reported at 2014-Aug-21 21:32 UTC. Time now 2014-Aug-21 22:04 UTC.
Position N 43°15' E 004°16'.

Length 18 m; draft 3.9 m.

Type: Fishing. MMSI: 228338900.

Date/timePositionNaut miles runAvg speedWind from/ knotsBaromVisibWave heightAir tempDewpointWater temp
2014-Aug-21 21:32N 43°15' E 004°16'4 3.7
2014-Aug-21 20:33N 43°13' E 004°20'3 3.4
2014-Aug-21 19:32N 43°12' E 004°24'0 0.4
2014-Aug-21 18:33N 43°12' E 004°24'3 3.4
2014-Aug-21 17:33N 43°14' E 004°21'10 4.7
2014-Aug-21 15:26N 43°20' E 004°10'19 9.7
2014-Aug-21 13:29N 43°25' E 003°45'0 0.0
2014-Aug-21 12:33N 43°25' E 003°45'0 0.0
2014-Aug-21 11:33N 43°25' E 003°45'0 0.0
2014-Aug-21 10:33N 43°25' E 003°45'0 0.0
2014-Aug-21 07:08N 43°25' E 003°45'0 0.0
2014-Aug-21 06:32N 43°25' E 003°45'0 0.0
2014-Aug-21 05:32N 43°25' E 003°45'0 0.0
2014-Aug-21 04:30N 43°25' E 003°45'0 0.0
2014-Aug-21 03:30N 43°25' E 003°45'0 0.0
2014-Aug-21 02:32N 43°25' E 003°45'0 0.0
2014-Aug-21 01:33N 43°25' E 003°45'0 0.0
2014-Aug-21 00:33N 43°25' E 003°45'0 0.0
2014-Aug-20 23:33N 43°25' E 003°45'0 0.0
2014-Aug-20 22:33N 43°25' E 003°45'0 0.0
2014-Aug-20 21:33N 43°25' E 003°45'0 0.0
2014-Aug-20 20:33N 43°25' E 003°45'0 0.0
2014-Aug-20 19:33N 43°25' E 003°45'0 0.0
2014-Aug-20 18:33N 43°25' E 003°45'0 0.0
2014-Aug-20 17:32N 43°25' E 003°45'0 0.0
2014-Aug-20 16:33N 43°25' E 003°45'0 0.0
2014-Aug-20 15:31N 43°25' E 003°45'0 0.0
2014-Aug-20 14:30N 43°25' E 003°45'0 0.0
2014-Aug-20 13:30N 43°25' E 003°45'0 0.0
2014-Aug-20 12:32N 43°25' E 003°45'0 0.0
2014-Aug-20 11:30N 43°25' E 003°45'0 0.0
2014-Aug-20 10:30N 43°25' E 003°45'0 0.0
2014-Aug-20 09:33N 43°25' E 003°45'0 0.0
2014-Aug-20 08:32N 43°25' E 003°45'3 2.5
2014-Aug-20 07:28N 43°24' E 003°42'3 2.8
2014-Aug-20 06:32N 43°25' E 003°45'0 0.0
2014-Aug-20 05:32N 43°25' E 003°45'0 0.0
2014-Aug-20 04:33N 43°25' E 003°45'0 0.0
2014-Aug-20 03:30N 43°25' E 003°45'0 0.0
2014-Aug-20 02:30N 43°25' E 003°45'0 0.0
2014-Aug-20 01:30N 43°25' E 003°45'0 0.0
2014-Aug-20 00:32N 43°25' E 003°45'0 0.0
2014-Aug-19 23:33N 43°25' E 003°45'0 0.0
2014-Aug-19 22:33N 43°25' E 003°45'0 0.0
2014-Aug-19 21:33N 43°25' E 003°45'0 0.0
2014-Aug-19 20:33N 43°25' E 003°45'0 0.0
2014-Aug-19 19:32N 43°25' E 003°45'0 0.0
2014-Aug-19 18:33N 43°25' E 003°45'0 0.0
2014-Aug-19 17:32N 43°25' E 003°45'0 0.0
2014-Aug-19 16:33N 43°25' E 003°45'0 0.0
2014-Aug-19 15:30N 43°25' E 003°45'0 0.0
2014-Aug-19 14:29N 43°25' E 003°45'0 0.0
2014-Aug-19 13:29N 43°25' E 003°45'0 0.0
2014-Aug-19 12:30N 43°25' E 003°45'0 0.0
2014-Aug-19 11:30N 43°25' E 003°45'0 0.0
2014-Aug-19 10:28N 43°25' E 003°45'0 0.0
2014-Aug-19 09:32N 43°25' E 003°45'0 0.0
2014-Aug-19 08:32N 43°25' E 003°45'0 0.0
2014-Aug-19 07:31N 43°25' E 003°45'0 0.0
2014-Aug-19 06:22N 43°25' E 003°45'0 0.0
2014-Aug-19 05:24N 43°25' E 003°45'0 0.0
2014-Aug-19 04:33N 43°25' E 003°45'0 0.0
2014-Aug-19 03:31N 43°25' E 003°45'0 0.0
2014-Aug-19 02:30N 43°25' E 003°45'3 3.2
2014-Aug-19 01:31N 43°24' E 003°49'1212.1
2014-Aug-19 00:30N 43°21' E 004°05'1010.2
2014-Aug-18 23:32N 43°18' E 004°18'2 2.3
2014-Aug-18 22:30N 43°16' E 004°20'2 2.3
2014-Aug-18 21:29N 43°14' E 004°21'4 3.6
2014-Aug-18 20:27N 43°11' E 004°24'3 2.6
2014-Aug-18 19:28N 43°10' E 004°27'35 4.3
2014-Aug-18 11:32N 43°25' E 003°45'0 0.0
2014-Aug-18 10:33N 43°25' E 003°45'0 0.0
2014-Aug-18 09:07N 43°25' E 003°45'0 0.0
2014-Aug-18 08:33N 43°25' E 003°45'0 0.0
2014-Aug-18 06:20N 43°25' E 003°45'0 0.0
2014-Aug-18 05:31N 43°25' E 003°45'0 0.0
2014-Aug-18 04:33N 43°25' E 003°45'0 0.0
2014-Aug-18 03:29N 43°25' E 003°45'0 0.0
2014-Aug-18 02:29N 43°25' E 003°45'1 1.4
2014-Aug-18 01:33N 43°24' E 003°46'1211.8
2014-Aug-18 00:33N 43°20' E 004°01'20 3.4
2014-Aug-17 18:33N 43°11' E 004°26'6 4.8
2014-Aug-17 17:18N 43°15' E 004°20'4 4.9
2014-Aug-17 16:30N 43°17' E 004°16'7 7.3
2014-Aug-17 15:30N 43°21' E 004°07'1311.6
2014-Aug-17 14:24N 43°24' E 003°50'4 4.8
2014-Aug-17 13:33N 43°25' E 003°45'0 0.0
2014-Aug-17 12:33N 43°25' E 003°45'0 0.0
2014-Aug-17 11:33N 43°25' E 003°45'0 0.0
2014-Aug-17 10:34N 43°25' E 003°45'0 0.0
2014-Aug-17 09:34N 43°25' E 003°45'0 0.0
2014-Aug-17 08:34N 43°25' E 003°45'0 0.0
2014-Aug-17 07:34N 43°25' E 003°45'0 0.0
2014-Aug-17 06:33N 43°25' E 003°45'0 0.0
2014-Aug-17 05:33N 43°25' E 003°45'0 0.0
2014-Aug-17 04:33N 43°25' E 003°45'0 0.0
2014-Aug-17 03:33N 43°25' E 003°45'0 0.0
2014-Aug-17 02:34N 43°25' E 003°45'0 0.0
2014-Aug-17 01:34N 43°25' E 003°45'0 0.0
2014-Aug-17 00:33N 43°25' E 003°45'0 0.0
2014-Aug-16 23:34N 43°25' E 003°45'0 0.0
2014-Aug-16 22:33N 43°25' E 003°45'0 0.0
2014-Aug-16 21:33N 43°25' E 003°45'0 0.0
2014-Aug-16 20:34N 43°25' E 003°45'0 0.0
2014-Aug-16 19:33N 43°25' E 003°45'0 0.0
2014-Aug-16 18:33N 43°25' E 003°45'0 0.0
2014-Aug-16 17:34N 43°25' E 003°45'0 0.0
2014-Aug-16 16:34N 43°25' E 003°45'0 0.0
2014-Aug-16 15:28N 43°25' E 003°45'0 0.0
2014-Aug-16 14:34N 43°25' E 003°45'0 0.0
2014-Aug-16 13:28N 43°25' E 003°45'0 0.0
2014-Aug-16 12:28N 43°25' E 003°45'0 0.0
2014-Aug-16 11:34N 43°25' E 003°45'0 0.0
2014-Aug-16 10:34N 43°25' E 003°45'0 0.0
2014-Aug-16 09:34N 43°25' E 003°45'0 0.0
2014-Aug-16 07:34N 43°25' E 003°45'0 0.0
2014-Aug-16 06:04N 43°25' E 003°45'0 0.0
2014-Aug-16 05:32N 43°25' E 003°45'0 0.0
2014-Aug-16 04:25N 43°25' E 003°45'0 0.0
2014-Aug-16 03:33N 43°25' E 003°45'0 0.0
2014-Aug-16 02:33N 43°25' E 003°45'0 0.0
2014-Aug-16 01:34N 43°25' E 003°45'0 0.0
2014-Aug-16 00:33N 43°25' E 003°45'0 0.0
2014-Aug-15 23:33N 43°25' E 003°45'0 0.0
2014-Aug-15 22:34N 43°25' E 003°45'0 0.0
2014-Aug-15 21:34N 43°25' E 003°45'0 0.0
2014-Aug-15 20:33N 43°25' E 003°45'0 0.0
2014-Aug-15 19:33N 43°25' E 003°45'0 0.0
2014-Aug-15 18:34N 43°25' E 003°45'0 0.0
2014-Aug-15 17:34N 43°25' E 003°45'0 0.0
2014-Aug-15 16:33N 43°25' E 003°45'0 0.0
2014-Aug-15 15:33N 43°25' E 003°45'0 0.0
2014-Aug-15 14:33N 43°25' E 003°45'0 0.0
2014-Aug-15 13:33N 43°25' E 003°45'0 0.0
2014-Aug-15 12:33N 43°25' E 003°45'0 0.0
2014-Aug-15 11:33N 43°25' E 003°45'0 0.0
2014-Aug-15 10:34N 43°25' E 003°45'0 0.0
2014-Aug-15 09:33N 43°25' E 003°45'0 0.0
2014-Aug-15 08:34N 43°25' E 003°45'0 0.0
2014-Aug-15 07:34N 43°25' E 003°45'0 0.0
2014-Aug-15 06:34N 43°25' E 003°45'0 0.0
2014-Aug-15 05:33N 43°25' E 003°45'0 0.0
2014-Aug-15 04:33N 43°25' E 003°45'0 0.0
2014-Aug-15 03:33N 43°25' E 003°45'0 0.0
2014-Aug-15 02:33N 43°25' E 003°45'0 0.0
2014-Aug-15 01:34N 43°25' E 003°45'0 0.0
2014-Aug-15 00:33N 43°25' E 003°45'0 0.0
2014-Aug-14 23:33N 43°25' E 003°45'0 0.0
2014-Aug-14 22:33N 43°25' E 003°45'0 0.0
2014-Aug-14 21:33N 43°25' E 003°45'0 0.0
2014-Aug-14 20:33N 43°25' E 003°45'0 0.0
2014-Aug-14 19:33N 43°25' E 003°45'0 0.0
2014-Aug-14 18:33N 43°25' E 003°45'0 0.0
2014-Aug-14 17:34N 43°25' E 003°45'0 0.0
2014-Aug-14 16:33N 43°25' E 003°45'0 0.0
2014-Aug-14 15:33N 43°25' E 003°45'0 0.0
2014-Aug-14 14:33N 43°25' E 003°45'0 0.0
2014-Aug-14 13:33N 43°25' E 003°45'0 0.0
2014-Aug-14 12:33N 43°25' E 003°45'0 0.0
2014-Aug-14 11:33N 43°25' E 003°45'0 0.0
2014-Aug-14 10:33N 43°25' E 003°45'0 0.0
2014-Aug-14 09:33N 43°25' E 003°45'0 0.0
2014-Aug-14 08:33N 43°25' E 003°45'0 0.0
2014-Aug-14 07:33N 43°25' E 003°45'0 0.0
2014-Aug-14 06:33N 43°25' E 003°45'0 0.0
2014-Aug-14 05:33N 43°25' E 003°45'0 0.0
2014-Aug-14 04:33N 43°25' E 003°45'0 0.0
2014-Aug-14 03:33N 43°25' E 003°45'0 0.0
2014-Aug-14 02:33N 43°25' E 003°45'0 0.0
2014-Aug-14 01:33N 43°25' E 003°45'0 0.0
2014-Aug-14 00:33N 43°25' E 003°45'0 0.0
2014-Aug-13 23:30N 43°25' E 003°45'0 0.0
2014-Aug-13 22:33N 43°25' E 003°45'0 0.0
2014-Aug-13 21:33N 43°25' E 003°45'0 0.0
2014-Aug-13 20:30N 43°25' E 003°45'0 0.0
2014-Aug-13 19:33N 43°25' E 003°45'0 0.0
2014-Aug-13 18:33N 43°25' E 003°45'0 0.0
2014-Aug-13 17:28N 43°25' E 003°45'0 0.0
2014-Aug-13 16:29N 43°25' E 003°45'0 0.0
2014-Aug-13 15:29N 43°25' E 003°45'0 0.0
2014-Aug-13 14:33N 43°25' E 003°45'0 0.0
2014-Aug-13 13:30N 43°25' E 003°45'0 0.0
2014-Aug-13 12:29N 43°25' E 003°45'0 0.0
2014-Aug-13 11:29N 43°25' E 003°45'0 0.0
2014-Aug-13 10:29N 43°25' E 003°45'0 0.0
2014-Aug-13 09:30N 43°25' E 003°45'0 0.0
2014-Aug-13 08:33N 43°25' E 003°45'0 0.0
2014-Aug-13 05:30N 43°25' E 003°45'0 0.0
2014-Aug-13 04:30N 43°25' E 003°45'0 0.0
2014-Aug-13 03:30N 43°25' E 003°45'0 0.0
2014-Aug-13 02:31N 43°25' E 003°45'0 0.0
2014-Aug-13 01:32N 43°25' E 003°45'7 6.5
2014-Aug-13 00:30N 43°24' E 003°54'9 9.6
2014-Aug-12 23:31N 43°22' E 004°07'2 2.2
2014-Aug-12 22:31N 43°21' E 004°10'3 3.0
2014-Aug-12 21:30N 43°20' E 004°13'4 3.5
2014-Aug-12 20:29N 43°17' E 004°17'3 3.2
2014-Aug-12 19:27N 43°16' E 004°20'1 0.6
2014-Aug-12 18:33N 43°16' E 004°20'12 3.6
2014-Aug-12 15:15N 43°23' E 004°07'8 9.8
2014-Aug-12 14:28N 43°24' E 003°56'8 9.1
2014-Aug-12 13:32N 43°25' E 003°45'0 0.0
2014-Aug-12 12:29N 43°25' E 003°45'0 0.0
2014-Aug-12 10:03N 43°25' E 003°45'0 0.0
2014-Aug-12 09:31N 43°25' E 003°45'0 0.0
2014-Aug-12 07:29N 43°25' E 003°45'0 0.0
2014-Aug-12 05:28N 43°25' E 003°45'0 0.0
2014-Aug-12 04:32N 43°25' E 003°45'0 0.0
2014-Aug-12 03:29N 43°25' E 003°45'0 0.0
2014-Aug-12 02:33N 43°25' E 003°45'0 0.0
2014-Aug-12 01:33N 43°25' E 003°45'0 0.0
2014-Aug-12 00:29N 43°25' E 003°45'0 0.0
2014-Aug-11 23:23N 43°25' E 003°45'0 0.0
2014-Aug-11 21:33N 43°25' E 003°45'  

Dump ship's entire track history